sensor_id;sensor_type;location;lat;lon;timestamp;P1;durP1;ratioP1;P2;durP2;ratioP2
12848;SDS011;6493;50.928;7.172;2024-03-22T00:01:55;3.77;;;3.37;;
12848;SDS011;6493;50.928;7.172;2024-03-22T00:06:58;5.00;;;3.57;;
12848;SDS011;6493;50.928;7.172;2024-03-22T00:12:02;3.83;;;3.43;;
12848;SDS011;6493;50.928;7.172;2024-03-22T00:17:05;3.40;;;3.10;;
12848;SDS011;6493;50.928;7.172;2024-03-22T00:22:08;4.00;;;3.33;;
12848;SDS011;6493;50.928;7.172;2024-03-22T00:27:12;3.47;;;3.17;;
12848;SDS011;6493;50.928;7.172;2024-03-22T00:32:15;4.10;;;3.63;;
12848;SDS011;6493;50.928;7.172;2024-03-22T00:37:18;4.47;;;4.07;;
12848;SDS011;6493;50.928;7.172;2024-03-22T00:42:22;5.00;;;4.43;;
12848;SDS011;6493;50.928;7.172;2024-03-22T00:47:25;4.40;;;3.70;;
12848;SDS011;6493;50.928;7.172;2024-03-22T00:52:27;3.70;;;3.37;;
12848;SDS011;6493;50.928;7.172;2024-03-22T00:57:32;3.20;;;2.90;;
12848;SDS011;6493;50.928;7.172;2024-03-22T01:02:34;5.43;;;3.70;;
12848;SDS011;6493;50.928;7.172;2024-03-22T01:07:37;3.57;;;3.20;;
12848;SDS011;6493;50.928;7.172;2024-03-22T01:12:42;3.57;;;3.03;;
12848;SDS011;6493;50.928;7.172;2024-03-22T01:17:45;4.23;;;3.60;;
12848;SDS011;6493;50.928;7.172;2024-03-22T01:22:47;4.07;;;3.30;;
12848;SDS011;6493;50.928;7.172;2024-03-22T01:27:52;3.40;;;3.10;;
12848;SDS011;6493;50.928;7.172;2024-03-22T01:32:54;3.17;;;2.87;;
12848;SDS011;6493;50.928;7.172;2024-03-22T01:37:57;3.63;;;3.07;;
12848;SDS011;6493;50.928;7.172;2024-03-22T01:43:01;3.70;;;3.37;;
12848;SDS011;6493;50.928;7.172;2024-03-22T01:48:04;4.60;;;3.73;;
12848;SDS011;6493;50.928;7.172;2024-03-22T01:53:09;4.10;;;3.70;;
12848;SDS011;6493;50.928;7.172;2024-03-22T01:58:13;3.73;;;3.27;;
12848;SDS011;6493;50.928;7.172;2024-03-22T02:03:16;3.17;;;2.63;;
12848;SDS011;6493;50.928;7.172;2024-03-22T02:08:19;3.47;;;2.70;;
12848;SDS011;6493;50.928;7.172;2024-03-22T02:13:23;3.70;;;2.97;;
12848;SDS011;6493;50.928;7.172;2024-03-22T02:18:26;2.80;;;2.60;;
12848;SDS011;6493;50.928;7.172;2024-03-22T02:23:32;3.13;;;2.30;;
12848;SDS011;6493;50.928;7.172;2024-03-22T02:28:35;2.57;;;2.20;;
12848;SDS011;6493;50.928;7.172;2024-03-22T02:33:38;2.83;;;2.50;;
12848;SDS011;6493;50.928;7.172;2024-03-22T02:38:42;3.10;;;2.77;;
12848;SDS011;6493;50.928;7.172;2024-03-22T02:43:45;3.23;;;2.70;;
12848;SDS011;6493;50.928;7.172;2024-03-22T02:48:48;2.90;;;2.53;;
12848;SDS011;6493;50.928;7.172;2024-03-22T02:53:52;3.03;;;2.73;;
12848;SDS011;6493;50.928;7.172;2024-03-22T02:58:54;3.37;;;2.83;;
12848;SDS011;6493;50.928;7.172;2024-03-22T03:03:57;3.53;;;3.00;;
12848;SDS011;6493;50.928;7.172;2024-03-22T03:09:01;3.10;;;2.80;;
12848;SDS011;6493;50.928;7.172;2024-03-22T03:14:06;4.73;;;3.10;;
12848;SDS011;6493;50.928;7.172;2024-03-22T03:19:09;3.67;;;2.90;;
12848;SDS011;6493;50.928;7.172;2024-03-22T03:24:13;3.20;;;2.80;;
12848;SDS011;6493;50.928;7.172;2024-03-22T03:29:16;3.17;;;2.60;;
12848;SDS011;6493;50.928;7.172;2024-03-22T03:34:18;3.50;;;2.73;;
12848;SDS011;6493;50.928;7.172;2024-03-22T03:39:23;3.73;;;3.10;;
12848;SDS011;6493;50.928;7.172;2024-03-22T03:44:26;3.47;;;3.07;;
12848;SDS011;6493;50.928;7.172;2024-03-22T03:49:28;2.80;;;2.37;;
12848;SDS011;6493;50.928;7.172;2024-03-22T03:54:32;3.23;;;2.70;;
12848;SDS011;6493;50.928;7.172;2024-03-22T03:59:35;2.33;;;2.13;;
12848;SDS011;6493;50.928;7.172;2024-03-22T04:04:38;3.13;;;2.83;;
12848;SDS011;6493;50.928;7.172;2024-03-22T04:09:43;2.70;;;2.40;;
12848;SDS011;6493;50.928;7.172;2024-03-22T04:14:45;2.53;;;1.93;;
12848;SDS011;6493;50.928;7.172;2024-03-22T04:19:49;2.77;;;2.33;;
12848;SDS011;6493;50.928;7.172;2024-03-22T04:24:54;3.23;;;2.60;;
12848;SDS011;6493;50.928;7.172;2024-03-22T04:29:57;3.23;;;2.57;;
12848;SDS011;6493;50.928;7.172;2024-03-22T04:35:02;3.47;;;2.77;;
12848;SDS011;6493;50.928;7.172;2024-03-22T04:40:07;3.10;;;2.50;;
12848;SDS011;6493;50.928;7.172;2024-03-22T04:45:11;2.97;;;2.40;;
12848;SDS011;6493;50.928;7.172;2024-03-22T04:50:14;3.53;;;2.87;;
12848;SDS011;6493;50.928;7.172;2024-03-22T04:55:18;3.40;;;2.47;;
12848;SDS011;6493;50.928;7.172;2024-03-22T05:00:21;2.50;;;2.30;;
12848;SDS011;6493;50.928;7.172;2024-03-22T05:05:26;2.07;;;1.87;;
12848;SDS011;6493;50.928;7.172;2024-03-22T05:10:30;3.30;;;2.17;;
12848;SDS011;6493;50.928;7.172;2024-03-22T05:15:33;3.27;;;2.80;;
12848;SDS011;6493;50.928;7.172;2024-03-22T05:20:35;2.23;;;2.03;;
12848;SDS011;6493;50.928;7.172;2024-03-22T05:25:40;2.33;;;2.10;;
12848;SDS011;6493;50.928;7.172;2024-03-22T05:30:42;2.80;;;2.13;;
12848;SDS011;6493;50.928;7.172;2024-03-22T05:35:45;2.83;;;2.20;;
12848;SDS011;6493;50.928;7.172;2024-03-22T05:40:50;3.00;;;2.43;;
12848;SDS011;6493;50.928;7.172;2024-03-22T05:45:53;2.97;;;2.47;;
12848;SDS011;6493;50.928;7.172;2024-03-22T05:50:56;2.30;;;2.10;;
12848;SDS011;6493;50.928;7.172;2024-03-22T05:56:00;2.60;;;2.30;;
12848;SDS011;6493;50.928;7.172;2024-03-22T06:01:03;2.10;;;1.90;;
12848;SDS011;6493;50.928;7.172;2024-03-22T06:06:06;2.00;;;1.80;;
12848;SDS011;6493;50.928;7.172;2024-03-22T06:11:10;2.97;;;2.37;;
12848;SDS011;6493;50.928;7.172;2024-03-22T06:16:13;2.73;;;2.07;;
12848;SDS011;6493;50.928;7.172;2024-03-22T06:21:16;2.57;;;2.27;;
12848;SDS011;6493;50.928;7.172;2024-03-22T06:26:24;2.30;;;2.10;;
12848;SDS011;6493;50.928;7.172;2024-03-22T06:31:27;2.30;;;2.10;;
12848;SDS011;6493;50.928;7.172;2024-03-22T06:36:30;2.93;;;1.73;;
12848;SDS011;6493;50.928;7.172;2024-03-22T06:41:35;2.33;;;2.13;;
12848;SDS011;6493;50.928;7.172;2024-03-22T06:46:38;2.40;;;1.90;;
12848;SDS011;6493;50.928;7.172;2024-03-22T06:51:42;2.20;;;1.60;;
12848;SDS011;6493;50.928;7.172;2024-03-22T06:56:46;1.87;;;1.67;;
12848;SDS011;6493;50.928;7.172;2024-03-22T07:01:48;2.67;;;2.10;;
12848;SDS011;6493;50.928;7.172;2024-03-22T07:06:51;2.33;;;2.10;;
12848;SDS011;6493;50.928;7.172;2024-03-22T07:11:55;2.23;;;2.03;;
12848;SDS011;6493;50.928;7.172;2024-03-22T07:16:58;3.10;;;2.20;;
12848;SDS011;6493;50.928;7.172;2024-03-22T07:22:01;2.40;;;2.20;;
12848;SDS011;6493;50.928;7.172;2024-03-22T07:27:06;2.13;;;1.93;;
12848;SDS011;6493;50.928;7.172;2024-03-22T07:32:09;2.53;;;2.17;;
12848;SDS011;6493;50.928;7.172;2024-03-22T07:37:18;1.80;;;1.60;;
12848;SDS011;6493;50.928;7.172;2024-03-22T07:42:22;2.37;;;1.87;;
12848;SDS011;6493;50.928;7.172;2024-03-22T07:47:25;3.33;;;2.47;;
12848;SDS011;6493;50.928;7.172;2024-03-22T07:52:28;2.00;;;1.80;;
12848;SDS011;6493;50.928;7.172;2024-03-22T07:57:32;2.40;;;1.70;;
12848;SDS011;6493;50.928;7.172;2024-03-22T08:02:35;2.20;;;1.97;;
12848;SDS011;6493;50.928;7.172;2024-03-22T08:07:38;2.80;;;2.20;;
12848;SDS011;6493;50.928;7.172;2024-03-22T08:12:42;2.97;;;2.40;;
12848;SDS011;6493;50.928;7.172;2024-03-22T08:17:45;3.00;;;2.50;;
12848;SDS011;6493;50.928;7.172;2024-03-22T08:22:47;3.30;;;3.00;;
12848;SDS011;6493;50.928;7.172;2024-03-22T08:27:52;2.97;;;2.73;;
12848;SDS011;6493;50.928;7.172;2024-03-22T08:32:56;2.73;;;2.53;;
12848;SDS011;6493;50.928;7.172;2024-03-22T08:38:00;4.70;;;2.70;;
12848;SDS011;6493;50.928;7.172;2024-03-22T08:43:04;3.53;;;2.70;;
12848;SDS011;6493;50.928;7.172;2024-03-22T08:48:08;4.03;;;3.27;;
12848;SDS011;6493;50.928;7.172;2024-03-22T08:53:12;3.93;;;2.77;;
12848;SDS011;6493;50.928;7.172;2024-03-22T08:58:16;2.63;;;2.43;;
12848;SDS011;6493;50.928;7.172;2024-03-22T09:03:20;3.77;;;3.47;;
12848;SDS011;6493;50.928;7.172;2024-03-22T09:08:23;2.37;;;2.17;;
12848;SDS011;6493;50.928;7.172;2024-03-22T09:13:27;2.10;;;1.90;;
12848;SDS011;6493;50.928;7.172;2024-03-22T09:18:30;2.80;;;2.30;;
12848;SDS011;6493;50.928;7.172;2024-03-22T09:23:33;4.87;;;2.53;;
12848;SDS011;6493;50.928;7.172;2024-03-22T09:28:38;4.40;;;3.50;;
12848;SDS011;6493;50.928;7.172;2024-03-22T09:33:40;4.13;;;2.60;;
12848;SDS011;6493;50.928;7.172;2024-03-22T09:38:44;3.73;;;2.90;;
12848;SDS011;6493;50.928;7.172;2024-03-22T09:43:48;2.40;;;2.20;;
12848;SDS011;6493;50.928;7.172;2024-03-22T09:48:53;2.40;;;2.20;;
12848;SDS011;6493;50.928;7.172;2024-03-22T09:53:57;3.87;;;3.47;;
12848;SDS011;6493;50.928;7.172;2024-03-22T09:59:01;2.90;;;2.60;;
12848;SDS011;6493;50.928;7.172;2024-03-22T10:04:04;1.90;;;1.77;;
12848;SDS011;6493;50.928;7.172;2024-03-22T10:09:09;2.23;;;1.50;;
12848;SDS011;6493;50.928;7.172;2024-03-22T10:14:23;1.83;;;1.67;;
12848;SDS011;6493;50.928;7.172;2024-03-22T10:19:27;1.60;;;1.50;;
12848;SDS011;6493;50.928;7.172;2024-03-22T10:24:33;1.67;;;1.30;;
12848;SDS011;6493;50.928;7.172;2024-03-22T10:30:11;1.93;;;1.20;;
12848;SDS011;6493;50.928;7.172;2024-03-22T10:35:17;1.50;;;1.40;;
12848;SDS011;6493;50.928;7.172;2024-03-22T10:40:21;2.33;;;1.60;;
12848;SDS011;6493;50.928;7.172;2024-03-22T10:45:26;1.77;;;1.60;;
12848;SDS011;6493;50.928;7.172;2024-03-22T10:50:29;2.00;;;1.80;;
12848;SDS011;6493;50.928;7.172;2024-03-22T10:55:35;1.80;;;1.53;;
12848;SDS011;6493;50.928;7.172;2024-03-22T11:00:42;1.30;;;1.20;;
12848;SDS011;6493;50.928;7.172;2024-03-22T11:05:46;1.10;;;1.00;;
12848;SDS011;6493;50.928;7.172;2024-03-22T11:10:49;1.53;;;1.43;;
12848;SDS011;6493;50.928;7.172;2024-03-22T11:15:53;2.97;;;2.20;;
12848;SDS011;6493;50.928;7.172;2024-03-22T11:20:56;3.10;;;2.10;;
12848;SDS011;6493;50.928;7.172;2024-03-22T11:25:59;2.93;;;2.10;;
12848;SDS011;6493;50.928;7.172;2024-03-22T11:31:04;1.90;;;1.60;;
12848;SDS011;6493;50.928;7.172;2024-03-22T11:36:07;1.93;;;1.70;;
12848;SDS011;6493;50.928;7.172;2024-03-22T11:41:13;2.20;;;2.00;;
12848;SDS011;6493;50.928;7.172;2024-03-22T11:46:19;1.30;;;1.20;;
12848;SDS011;6493;50.928;7.172;2024-03-22T11:51:23;2.50;;;2.20;;
12848;SDS011;6493;50.928;7.172;2024-03-22T11:56:26;3.83;;;2.60;;
12848;SDS011;6493;50.928;7.172;2024-03-22T12:01:30;2.53;;;1.77;;
12848;SDS011;6493;50.928;7.172;2024-03-22T12:06:33;1.80;;;1.57;;
12848;SDS011;6493;50.928;7.172;2024-03-22T12:11:36;2.37;;;1.80;;
12848;SDS011;6493;50.928;7.172;2024-03-22T12:16:40;2.23;;;1.90;;
12848;SDS011;6493;50.928;7.172;2024-03-22T12:21:43;1.90;;;1.80;;
12848;SDS011;6493;50.928;7.172;2024-03-22T12:26:46;1.73;;;1.63;;
12848;SDS011;6493;50.928;7.172;2024-03-22T12:31:51;1.60;;;1.33;;
12848;SDS011;6493;50.928;7.172;2024-03-22T12:36:55;1.70;;;1.60;;
12848;SDS011;6493;50.928;7.172;2024-03-22T12:41:58;1.50;;;1.40;;
12848;SDS011;6493;50.928;7.172;2024-03-22T12:47:02;2.97;;;2.00;;
12848;SDS011;6493;50.928;7.172;2024-03-22T12:52:05;1.50;;;1.40;;
12848;SDS011;6493;50.928;7.172;2024-03-22T12:57:09;2.00;;;1.80;;
12848;SDS011;6493;50.928;7.172;2024-03-22T13:02:13;2.47;;;1.77;;
12848;SDS011;6493;50.928;7.172;2024-03-22T13:07:16;1.70;;;1.60;;
12848;SDS011;6493;50.928;7.172;2024-03-22T13:12:19;2.10;;;1.90;;
12848;SDS011;6493;50.928;7.172;2024-03-22T13:17:24;3.90;;;1.90;;
12848;SDS011;6493;50.928;7.172;2024-03-22T13:22:27;2.07;;;1.73;;
12848;SDS011;6493;50.928;7.172;2024-03-22T13:27:30;1.83;;;1.73;;
12848;SDS011;6493;50.928;7.172;2024-03-22T13:32:34;2.00;;;1.80;;
12848;SDS011;6493;50.928;7.172;2024-03-22T13:37:37;2.23;;;2.03;;
12848;SDS011;6493;50.928;7.172;2024-03-22T13:42:40;2.20;;;2.00;;
12848;SDS011;6493;50.928;7.172;2024-03-22T13:47:44;2.37;;;2.17;;
12848;SDS011;6493;50.928;7.172;2024-03-22T13:52:46;1.97;;;1.77;;
12848;SDS011;6493;50.928;7.172;2024-03-22T13:57:49;2.40;;;2.20;;
12848;SDS011;6493;50.928;7.172;2024-03-22T14:02:53;1.33;;;1.23;;
12848;SDS011;6493;50.928;7.172;2024-03-22T14:07:57;2.23;;;2.03;;
12848;SDS011;6493;50.928;7.172;2024-03-22T14:13:00;1.77;;;1.53;;
12848;SDS011;6493;50.928;7.172;2024-03-22T14:18:06;3.33;;;2.40;;
12848;SDS011;6493;50.928;7.172;2024-03-22T14:23:09;2.57;;;1.80;;
12848;SDS011;6493;50.928;7.172;2024-03-22T14:28:11;1.63;;;1.53;;
12848;SDS011;6493;50.928;7.172;2024-03-22T14:33:16;3.33;;;1.50;;
12848;SDS011;6493;50.928;7.172;2024-03-22T14:38:18;1.40;;;1.30;;
12848;SDS011;6493;50.928;7.172;2024-03-22T14:43:21;1.67;;;1.23;;
12848;SDS011;6493;50.928;7.172;2024-03-22T14:48:27;3.13;;;2.07;;
12848;SDS011;6493;50.928;7.172;2024-03-22T14:53:30;1.53;;;1.43;;
12848;SDS011;6493;50.928;7.172;2024-03-22T14:58:33;1.87;;;1.70;;
12848;SDS011;6493;50.928;7.172;2024-03-22T15:03:38;2.00;;;1.50;;
12848;SDS011;6493;50.928;7.172;2024-03-22T15:08:41;3.57;;;2.27;;
12848;SDS011;6493;50.928;7.172;2024-03-22T15:13:44;2.67;;;1.63;;
12848;SDS011;6493;50.928;7.172;2024-03-22T15:18:48;2.33;;;2.13;;
12848;SDS011;6493;50.928;7.172;2024-03-22T15:23:51;4.73;;;1.77;;
12848;SDS011;6493;50.928;7.172;2024-03-22T15:28:54;2.07;;;1.87;;
12848;SDS011;6493;50.928;7.172;2024-03-22T15:33:58;2.10;;;1.77;;
12848;SDS011;6493;50.928;7.172;2024-03-22T15:39:01;2.57;;;2.20;;
12848;SDS011;6493;50.928;7.172;2024-03-22T15:44:05;2.40;;;2.20;;
12848;SDS011;6493;50.928;7.172;2024-03-22T15:49:10;2.53;;;1.90;;
12848;SDS011;6493;50.928;7.172;2024-03-22T15:54:16;1.50;;;1.40;;
12848;SDS011;6493;50.928;7.172;2024-03-22T15:59:21;1.93;;;1.83;;
12848;SDS011;6493;50.928;7.172;2024-03-22T16:04:25;2.63;;;2.10;;
12848;SDS011;6493;50.928;7.172;2024-03-22T16:09:28;2.17;;;2.00;;
12848;SDS011;6493;50.928;7.172;2024-03-22T16:14:31;2.90;;;2.50;;
12848;SDS011;6493;50.928;7.172;2024-03-22T16:19:35;1.93;;;1.83;;
12848;SDS011;6493;50.928;7.172;2024-03-22T16:24:38;2.10;;;1.90;;
12848;SDS011;6493;50.928;7.172;2024-03-22T16:29:41;2.30;;;2.10;;
12848;SDS011;6493;50.928;7.172;2024-03-22T16:34:45;2.10;;;1.90;;
12848;SDS011;6493;50.928;7.172;2024-03-22T16:39:48;2.37;;;2.17;;
12848;SDS011;6493;50.928;7.172;2024-03-22T16:44:51;2.20;;;2.00;;
12848;SDS011;6493;50.928;7.172;2024-03-22T16:49:55;2.67;;;2.47;;
12848;SDS011;6493;50.928;7.172;2024-03-22T16:54:59;2.13;;;1.93;;
12848;SDS011;6493;50.928;7.172;2024-03-22T17:00:02;2.33;;;1.90;;
12848;SDS011;6493;50.928;7.172;2024-03-22T17:05:09;2.57;;;2.27;;
12848;SDS011;6493;50.928;7.172;2024-03-22T17:10:12;2.70;;;2.50;;
12848;SDS011;6493;50.928;7.172;2024-03-22T17:15:16;3.00;;;2.50;;
12848;SDS011;6493;50.928;7.172;2024-03-22T17:20:22;2.73;;;2.53;;
12848;SDS011;6493;50.928;7.172;2024-03-22T17:25:25;2.10;;;2.00;;
12848;SDS011;6493;50.928;7.172;2024-03-22T17:30:27;2.50;;;2.30;;
12848;SDS011;6493;50.928;7.172;2024-03-22T17:35:32;1.87;;;1.77;;
12848;SDS011;6493;50.928;7.172;2024-03-22T17:40:35;2.23;;;2.03;;
12848;SDS011;6493;50.928;7.172;2024-03-22T17:45:38;2.80;;;2.60;;
12848;SDS011;6493;50.928;7.172;2024-03-22T17:50:42;2.90;;;2.60;;
12848;SDS011;6493;50.928;7.172;2024-03-22T17:55:45;2.53;;;2.33;;
12848;SDS011;6493;50.928;7.172;2024-03-22T18:00:48;1.90;;;1.70;;
12848;SDS011;6493;50.928;7.172;2024-03-22T18:05:52;3.13;;;2.30;;
12848;SDS011;6493;50.928;7.172;2024-03-22T18:10:55;2.33;;;2.13;;
12848;SDS011;6493;50.928;7.172;2024-03-22T18:15:59;3.73;;;2.20;;
12848;SDS011;6493;50.928;7.172;2024-03-22T18:21:03;2.90;;;2.60;;
12848;SDS011;6493;50.928;7.172;2024-03-22T18:31:44;2.43;;;2.23;;
12848;SDS011;6493;50.928;7.172;2024-03-22T18:36:49;2.00;;;1.63;;
12848;SDS011;6493;50.928;7.172;2024-03-22T18:41:52;2.17;;;1.97;;
12848;SDS011;6493;50.928;7.172;2024-03-22T18:46:55;2.37;;;2.23;;
12848;SDS011;6493;50.928;7.172;2024-03-22T18:52:00;2.10;;;2.00;;
12848;SDS011;6493;50.928;7.172;2024-03-22T18:57:03;2.00;;;1.83;;
12848;SDS011;6493;50.928;7.172;2024-03-22T19:02:07;1.50;;;1.40;;
12848;SDS011;6493;50.928;7.172;2024-03-22T19:07:11;1.90;;;1.80;;
12848;SDS011;6493;50.928;7.172;2024-03-22T19:12:14;2.00;;;1.80;;
12848;SDS011;6493;50.928;7.172;2024-03-22T19:17:17;1.90;;;1.80;;
12848;SDS011;6493;50.928;7.172;2024-03-22T19:22:21;1.60;;;1.50;;
12848;SDS011;6493;50.928;7.172;2024-03-22T19:27:24;1.23;;;1.13;;
12848;SDS011;6493;50.928;7.172;2024-03-22T19:32:27;1.03;;;1.03;;
12848;SDS011;6493;50.928;7.172;2024-03-22T19:37:31;1.30;;;1.20;;
12848;SDS011;6493;50.928;7.172;2024-03-22T19:42:34;1.30;;;1.20;;
12848;SDS011;6493;50.928;7.172;2024-03-22T19:47:37;1.27;;;1.17;;
12848;SDS011;6493;50.928;7.172;2024-03-22T19:52:42;1.20;;;1.13;;
12848;SDS011;6493;50.928;7.172;2024-03-22T19:57:45;0.87;;;0.87;;
12848;SDS011;6493;50.928;7.172;2024-03-22T20:02:47;1.20;;;1.10;;
12848;SDS011;6493;50.928;7.172;2024-03-22T20:07:52;1.20;;;1.10;;
12848;SDS011;6493;50.928;7.172;2024-03-22T20:12:55;1.30;;;1.20;;
12848;SDS011;6493;50.928;7.172;2024-03-22T20:17:58;1.33;;;1.23;;
12848;SDS011;6493;50.928;7.172;2024-03-22T20:23:03;1.33;;;1.23;;
12848;SDS011;6493;50.928;7.172;2024-03-22T20:28:08;1.60;;;1.50;;
12848;SDS011;6493;50.928;7.172;2024-03-22T20:33:11;1.30;;;1.20;;
